Time;durP1;ratioP1;P1;durP2;ratioP2;P2;SDS_P1;SDS_P2;PMS_P1;PMS_P2;Temp;Humidity;BMP_temperature;BMP_pressure;BME280_temperature;BME280_humidity;BME280_pressure;Samples;Min_cycle;Max_cycle;Signal;HPM_P1;HPM_P2
2023/09/11 00:00:43;;;;;;;18.52;14.48;;;;;;;18.12;100.00;92881.69;5036557;28;20049;-82
2023/09/11 00:03:09;;;;;;;19.92;15.35;;;;;;;18.09;100.00;92883.09;5019487;28;20037;-82
2023/09/11 00:05:34;;;;;;;20.92;14.32;;;;;;;18.08;100.00;92877.03;5017243;28;20026;-82
2023/09/11 00:08:00;;;;;;;19.17;14.10;;;;;;;18.08;100.00;92879.69;5033578;28;20499;-82
2023/09/11 00:10:25;;;;;;;18.45;14.18;;;;;;;18.08;100.00;92874.38;5030368;28;20048;-82
2023/09/11 00:12:51;;;;;;;32.67;14.52;;;;;;;18.08;100.00;92874.38;5034533;28;20041;-82
2023/09/11 00:15:17;;;;;;;21.38;14.80;;;;;;;18.07;100.00;92878.13;5035934;28;20044;-82
2023/09/11 00:17:43;;;;;;;21.30;14.90;;;;;;;18.07;100.00;92870.19;5024294;28;20053;-82
2023/09/11 00:20:10;;;;;;;18.85;14.60;;;;;;;18.05;100.00;92864.44;5017681;28;20145;-81
2023/09/11 00:22:39;;;;;;;19.13;14.70;;;;;;;18.01;100.00;92862.75;5022437;28;20116;-81
2023/09/11 00:25:06;;;;;;;21.52;16.48;;;;;;;17.96;100.00;92866.34;5035678;28;20029;-82
2023/09/11 00:27:31;;;;;;;23.52;15.05;;;;;;;17.94;100.00;92862.50;5034253;28;20116;-82
2023/09/11 00:29:57;;;;;;;21.27;15.73;;;;;;;17.93;100.00;92853.00;5017854;28;20125;-82
2023/09/11 00:32:23;;;;;;;19.98;15.20;;;;;;;17.90;100.00;92859.72;5028295;28;20029;-82
2023/09/11 00:34:49;;;;;;;21.17;15.90;;;;;;;17.87;100.00;92852.41;5032476;28;20502;-83
2023/09/11 00:37:14;;;;;;;20.40;15.13;;;;;;;17.86;100.00;92850.88;5020003;28;20083;-82
2023/09/11 00:39:40;;;;;;;20.90;15.77;;;;;;;17.85;100.00;92851.94;5017272;28;20156;-82
2023/09/11 00:42:05;;;;;;;19.75;14.90;;;;;;;17.87;100.00;92847.09;5025188;28;20041;-81
2023/09/11 00:44:32;;;;;;;21.40;15.52;;;;;;;17.85;100.00;92851.94;5031240;28;20037;-81
2023/09/11 00:46:58;;;;;;;21.60;16.40;;;;;;;17.84;100.00;92847.75;5021776;28;20479;-81
2023/09/11 00:49:24;;;;;;;20.23;15.20;;;;;;;17.81;100.00;92848.34;5025070;28;20061;-82
2023/09/11 00:51:50;;;;;;;22.10;15.73;;;;;;;17.75;100.00;92839.84;5036355;28;20628;-81
2023/09/11 00:54:19;;;;;;;24.30;15.73;;;;;;;17.72;100.00;92842.34;5018002;28;20037;-82
2023/09/11 00:56:46;;;;;;;23.02;16.40;;;;;;;17.68;100.00;92836.94;4999834;28;20057;-81
2023/09/11 00:59:13;;;;;;;20.10;14.93;;;;;;;17.65;100.00;92835.72;5016480;28;20136;-82
2023/09/11 01:01:42;;;;;;;19.98;15.13;;;;;;;17.64;100.00;92836.03;5018547;28;20045;-82
2023/09/11 01:04:08;;;;;;;22.75;15.68;;;;;;;17.62;100.00;92832.91;5036900;28;20029;-82
2023/09/11 01:06:34;;;;;;;20.20;15.32;;;;;;;17.62;100.00;92831.03;5000921;28;20084;-82
2023/09/11 01:09:01;;;;;;;20.63;15.25;;;;;;;17.58;100.00;92816.88;5005529;28;20400;-81
2023/09/11 01:11:27;;;;;;;21.00;16.40;;;;;;;17.64;100.00;92822.78;5001723;28;20045;-82
2023/09/11 01:13:53;;;;;;;22.63;15.52;;;;;;;17.62;100.00;92823.09;5034689;28;20395;-82
2023/09/11 01:16:32;;;;;;;20.80;16.38;;;;;;;17.61;100.00;92818.16;5018012;28;20392;-81
2023/09/11 01:19:05;;;;;;;26.35;16.70;;;;;;;17.59;100.00;92815.81;5012921;28;20032;-81
2023/09/11 01:21:51;;;;;;;20.45;15.38;;;;;;;17.61;100.00;92813.63;5020566;28;20033;-82
2023/09/11 01:24:42;;;;;;;19.65;15.50;;;;;;;17.56;100.00;92810.38;5016249;28;20033;-81
2023/09/11 01:27:53;;;;;;;25.25;16.38;;;;;;;17.56;100.00;92815.66;5017311;28;20069;-82
2023/09/11 01:30:21;;;;;;;24.20;15.65;;;;;;;17.55;100.00;92809.59;5008256;28;20103;-82
2023/09/11 01:32:48;;;;;;;20.90;16.42;;;;;;;17.55;100.00;92809.59;5016670;28;20033;-81
2023/09/11 01:35:14;;;;;;;24.65;16.98;;;;;;;17.54;100.00;92802.78;5007401;28;20172;-82
2023/09/11 01:37:40;;;;;;;22.45;16.88;;;;;;;17.55;100.00;92796.38;4998573;28;20076;-82
2023/09/11 01:40:06;;;;;;;24.60;16.65;;;;;;;17.56;100.00;92799.78;5000317;28;20044;-82
2023/09/11 01:42:42;;;;;;;21.95;15.77;;;;;;;17.56;100.00;92808.53;5017503;28;20052;-81
2023/09/11 01:45:10;;;;;;;22.40;15.50;;;;;;;17.53;100.00;92801.22;5011212;28;20061;-82
2023/09/11 01:47:36;;;;;;;20.35;14.60;;;;;;;17.47;100.00;92802.47;5005235;28;20224;-81
2023/09/11 01:50:04;;;;;;;18.88;13.90;;;;;;;17.44;100.00;92797.84;5048279;28;20037;-81
2023/09/11 01:52:31;;;;;;;19.75;14.05;;;;;;;17.39;100.00;92795.38;5050984;28;20025;-81
2023/09/11 01:54:57;;;;;;;20.50;13.55;;;;;;;17.38;100.00;92799.91;5048945;28;20034;-81
2023/09/11 01:57:27;;;;;;;21.17;13.70;;;;;;;17.37;100.00;92787.75;4988282;28;20288;-82
2023/09/11 01:59:53;;;;;;;17.67;13.85;;;;;;;17.38;100.00;92799.91;4997165;28;20038;-82
2023/09/11 02:02:19;;;;;;;18.65;13.90;;;;;;;17.39;100.00;92800.69;4997085;28;20073;-81
2023/09/11 02:04:45;;;;;;;21.13;15.18;;;;;;;17.39;100.00;92800.69;4980910;28;20065;-81
2023/09/11 02:07:11;;;;;;;19.67;13.63;;;;;;;17.36;100.00;92796.81;4997361;28;20034;-82
2023/09/11 02:09:36;;;;;;;20.23;13.98;;;;;;;17.38;100.00;92789.31;5014799;28;20120;-80
2023/09/11 02:12:02;;;;;;;22.13;14.48;;;;;;;17.36;100.00;92783.56;4992643;28;20101;-81
2023/09/11 02:14:28;;;;;;;20.63;14.10;;;;;;;17.33;100.00;92781.56;5014692;28;20066;-82
2023/09/11 02:16:54;;;;;;;18.15;13.45;;;;;;;17.32;100.00;92789.84;4997312;28;20685;-82
2023/09/11 02:19:19;;;;;;;19.02;13.20;;;;;;;17.30;100.00;92792.03;4997269;28;20365;-82
2023/09/11 02:21:45;;;;;;;17.70;12.85;;;;;;;17.27;100.00;92794.22;4970700;28;20038;-81
2023/09/11 02:24:11;;;;;;;17.13;13.25;;;;;;;17.25;100.00;92793.75;4994447;28;20400;-81
2023/09/11 02:26:36;;;;;;;20.58;13.40;;;;;;;17.22;100.00;92786.44;5011422;28;20121;-81
2023/09/11 02:29:03;;;;;;;16.73;12.57;;;;;;;17.23;100.00;92795.16;5014880;28;20060;-81
2023/09/11 02:31:28;;;;;;;17.30;13.15;;;;;;;17.21;100.00;92798.13;4992188;28;20058;-81
2023/09/11 02:33:54;;;;;;;17.48;13.00;;;;;;;17.19;100.00;92807.47;4979140;28;20062;-82
2023/09/11 02:36:20;;;;;;;17.05;13.27;;;;;;;17.17;100.00;92797.19;4997419;28;20030;-82
2023/09/11 02:38:45;;;;;;;17.75;13.95;;;;;;;17.17;100.00;92799.06;5015532;28;20038;-81
2023/09/11 02:41:11;;;;;;;20.90;13.98;;;;;;;17.14;100.00;92789.16;4996885;28;20042;-81
2023/09/11 02:43:37;;;;;;;18.27;13.98;;;;;;;17.10;100.00;92794.28;4991360;28;20045;-82
2023/09/11 02:46:03;;;;;;;19.42;14.23;;;;;;;17.05;100.00;92792.59;4995365;28;20093;-82
2023/09/11 02:48:28;;;;;;;17.95;12.98;;;;;;;17.02;100.00;92797.72;4997798;28;20040;-82
2023/09/11 02:50:54;;;;;;;20.77;13.73;;;;;;;16.97;100.00;92788.09;5017943;28;20045;-81
2023/09/11 02:53:20;;;;;;;17.90;13.82;;;;;;;16.98;100.00;92792.31;5000294;28;20038;-82
2023/09/11 02:55:45;;;;;;;20.25;14.38;;;;;;;16.96;100.00;92791.88;5000910;28;20590;-82
2023/09/11 02:58:11;;;;;;;18.10;13.82;;;;;;;16.94;100.00;92790.63;4992985;28;20102;-81
2023/09/11 03:00:37;;;;;;;19.92;13.98;;;;;;;16.90;100.00;92795.75;4978402;28;20500;-82
2023/09/11 03:03:03;;;;;;;20.17;14.10;;;;;;;16.91;100.00;92796.53;4979957;28;20093;-81
2023/09/11 03:05:32;;;;;;;19.58;14.80;;;;;;;16.87;100.00;92787.72;4993230;28;20046;-82
2023/09/11 03:07:59;;;;;;;21.25;15.32;;;;;;;16.88;100.00;92786.59;4977761;28;20359;-81
2023/09/11 03:10:27;;;;;;;20.77;15.38;;;;;;;16.89;100.00;92788.16;4978536;28;20043;-81
2023/09/11 03:12:54;;;;;;;22.52;14.90;;;;;;;16.88;100.00;92789.25;4978763;28;20026;-82
2023/09/11 03:15:24;;;;;;;19.67;15.35;;;;;;;16.88;100.00;92791.91;4976464;28;20488;-81
2023/09/11 03:17:50;;;;;;;21.65;15.68;;;;;;;16.89;100.00;92794.22;4995327;28;20177;-81
2023/09/11 03:20:15;;;;;;;21.67;16.20;;;;;;;16.87;100.00;92793.00;4998282;28;20503;-82
2023/09/11 03:22:41;;;;;;;21.67;16.17;;;;;;;16.86;100.00;92792.19;4996985;28;20042;-82
2023/09/11 03:25:07;;;;;;;25.65;16.83;;;;;;;16.87;100.00;92787.72;4963083;28;20476;-81
2023/09/11 03:27:33;;;;;;;22.85;16.45;;;;;;;16.86;100.00;92789.56;4990192;28;20065;-81
2023/09/11 03:29:59;;;;;;;21.48;16.52;;;;;;;16.83;100.00;92783.03;4996587;28;20038;-81
2023/09/11 03:32:24;;;;;;;26.73;16.90;;;;;;;16.85;100.00;92788.03;4980300;28;20124;-81
2023/09/11 03:34:55;;;;;;;24.75;15.63;;;;;;;16.84;100.00;92781.16;4994294;28;20082;-81
2023/09/11 03:37:22;;;;;;;24.05;17.08;;;;;;;16.83;100.00;92784.91;4985561;28;20038;-82
2023/09/11 03:39:48;;;;;;;24.10;18.20;;;;;;;16.84;100.00;92787.25;4977184;28;20116;-82
2023/09/11 03:42:14;;;;;;;27.38;17.38;;;;;;;16.84;100.00;92781.16;4977040;28;20126;-81
2023/09/11 03:44:39;;;;;;;24.33;17.60;;;;;;;16.84;100.00;92781.97;4969385;28;20128;-82
2023/09/11 03:47:05;;;;;;;24.55;17.27;;;;;;;16.83;100.00;92780.41;4996632;28;20038;-82
2023/09/11 03:49:31;;;;;;;22.77;17.83;;;;;;;16.83;100.00;92772.47;4985839;28;20034;-81
2023/09/11 03:51:57;;;;;;;27.52;19.77;;;;;;;16.81;100.00;92777.28;4979083;28;20027;-81
2023/09/11 03:54:23;;;;;;;21.67;16.75;;;;;;;16.80;100.00;92778.41;4985626;28;20045;-83
2023/09/11 03:56:49;;;;;;;22.75;17.27;;;;;;;16.77;100.00;92768.41;4996880;28;20038;-81
2023/09/11 03:59:15;;;;;;;24.17;18.27;;;;;;;16.70;100.00;92754.91;4987757;28;20069;-81
2023/09/11 04:01:41;;;;;;;26.95;17.25;;;;;;;16.75;100.00;92769.81;4969767;28;20039;-82
2023/09/11 04:04:07;;;;;;;25.75;17.85;;;;;;;16.73;100.00;92767.50;4977270;28;20042;-82
2023/09/11 04:06:32;;;;;;;23.00;18.00;;;;;;;16.72;100.00;92758.03;4984463;28;20027;-82
2023/09/11 04:08:58;;;;;;;23.00;16.52;;;;;;;16.73;100.00;92759.59;4978224;28;20042;-82
2023/09/11 04:11:24;;;;;;;27.05;19.83;;;;;;;16.75;100.00;92762.69;4994940;28;20042;-82
2023/09/11 04:13:49;;;;;;;25.58;17.73;;;;;;;16.72;100.00;92755.38;4996718;28;20130;-82
2023/09/11 04:16:15;;;;;;;24.98;18.40;;;;;;;16.75;100.00;92757.41;4988081;28;20058;-81
2023/09/11 04:18:42;;;;;;;25.67;18.63;;;;;;;16.75;100.00;92754.75;4980471;28;20116;-82
2023/09/11 04:21:08;;;;;;;24.17;18.17;;;;;;;16.76;100.00;92760.81;4976410;28;20397;-80
2023/09/11 04:23:36;;;;;;;25.70;17.15;;;;;;;16.78;100.00;92762.03;4988596;28;20737;-81
2023/09/11 04:26:01;;;;;;;26.25;16.33;;;;;;;16.76;100.00;92752.88;4980085;28;20023;-84
2023/09/11 04:28:27;;;;;;;27.73;18.63;;;;;;;16.75;100.00;92754.75;4989804;28;20455;-82
2023/09/11 04:30:52;;;;;;;25.92;17.10;;;;;;;16.75;100.00;92753.97;4982839;28;20074;-83
2023/09/11 04:33:19;;;;;;;23.58;17.45;;;;;;;16.74;100.00;92753.19;4982294;28;20062;-80
2023/09/11 04:35:45;;;;;;;25.50;18.08;;;;;;;16.72;100.00;92752.72;4977489;28;20039;-81
2023/09/11 04:38:12;;;;;;;23.95;17.70;;;;;;;16.71;100.00;92748.56;4972347;28;20046;-84
2023/09/11 04:40:38;;;;;;;24.27;17.77;;;;;;;16.67;100.00;92758.19;4979336;28;20030;-83
2023/09/11 04:43:04;;;;;;;24.75;17.42;;;;;;;16.64;100.00;92750.91;4992664;28;20046;-82
2023/09/11 04:45:30;;;;;;;24.50;15.95;;;;;;;16.61;100.00;92749.66;4987884;28;20045;-83
2023/09/11 04:47:56;;;;;;;23.40;17.17;;;;;;;16.59;100.00;92746.56;4973860;28;20046;-82
2023/09/11 04:50:21;;;;;;;24.48;17.42;;;;;;;16.60;100.00;92750.75;4985808;28;20034;-83
2023/09/11 04:52:47;;;;;;;22.02;17.23;;;;;;;16.61;100.00;92746.25;4986291;28;20118;-83
2023/09/11 04:55:13;;;;;;;23.52;16.45;;;;;;;16.63;100.00;92749.34;4989145;28;20088;-83
2023/09/11 04:57:40;;;;;;;25.08;16.95;;;;;;;16.65;100.00;92753.22;4985780;28;20423;-82
2023/09/11 05:00:10;;;;;;;24.17;17.17;;;;;;;16.66;100.00;92754.00;4996997;28;20052;-83
2023/09/11 05:02:37;;;;;;;28.13;17.08;;;;;;;16.68;100.00;92751.81;4992842;28;20065;-82
2023/09/11 05:05:03;;;;;;;25.20;16.90;;;;;;;16.68;100.00;92749.16;4998466;28;20057;-82
2023/09/11 05:07:30;;;;;;;22.85;17.17;;;;;;;16.68;100.00;92749.16;4982496;28;20038;-81
2023/09/11 05:09:55;;;;;;;24.45;16.40;;;;;;;16.67;100.00;92744.22;5005021;28;20017;-80
2023/09/11 05:12:21;;;;;;;21.30;15.63;;;;;;;16.67;100.00;92744.22;5001137;28;20121;-81
2023/09/11 05:14:47;;;;;;;22.42;15.68;;;;;;;16.68;100.00;92749.16;4996253;28;20041;-81
2023/09/11 05:17:13;;;;;;;25.00;15.93;;;;;;;16.70;100.00;92744.34;4998344;28;20033;-81
2023/09/11 05:19:39;;;;;;;26.42;16.15;;;;;;;16.71;100.00;92745.91;5015632;28;20075;-82
2023/09/11 05:22:04;;;;;;;22.52;15.70;;;;;;;16.75;100.00;92746.03;4978353;28;20040;-81
2023/09/11 05:24:32;;;;;;;22.42;15.93;;;;;;;16.81;100.00;92747.44;5008434;28;20042;-81
2023/09/11 05:26:58;;;;;;;21.45;14.95;;;;;;;16.89;100.00;92751.13;4980354;28;20061;-80
2023/09/11 05:29:23;;;;;;;20.13;14.70;;;;;;;16.94;100.00;92748.31;4996287;28;20023;-82
2023/09/11 05:31:49;;;;;;;18.95;14.18;;;;;;;17.03;100.00;92741.13;5004139;28;20045;-82
2023/09/11 05:34:15;;;;;;;20.90;13.75;;;;;;;17.11;100.00;92745.56;4990862;28;20037;-81
2023/09/11 05:36:40;;;;;;;18.33;13.90;;;;;;;17.19;100.00;92741.34;5007207;28;20042;-81
2023/09/11 05:39:06;;;;;;;20.95;13.82;;;;;;;17.27;100.00;92745.81;4998009;28;20040;-82
2023/09/11 05:41:32;;;;;;;18.38;13.60;;;;;;;17.37;100.00;92737.50;4997652;28;20038;-80
2023/09/11 05:43:58;;;;;;;20.30;13.27;;;;;;;17.49;100.00;92747.38;4989559;28;20030;-80
2023/09/11 05:46:24;;;;;;;17.30;13.63;;;;;;;17.60;100.00;92745.13;4990587;28;20057;-80
2023/09/11 05:48:49;;;;;;;18.08;13.27;;;;;;;17.72;100.00;92736.44;4979753;28;20078;-81
2023/09/11 05:51:15;;;;;;;17.40;13.05;;;;;;;17.84;100.00;92737.31;5013307;28;20217;-79
2023/09/11 05:53:41;;;;;;;17.17;12.80;;;;;;;17.97;100.00;92740.81;4982905;28;20400;-80
2023/09/11 05:56:07;;;;;;;17.15;12.55;;;;;;;18.44;100.00;92751.09;5007514;28;20040;-80
2023/09/11 05:58:34;;;;;;;17.30;12.27;;;;;;;19.34;100.00;92751.25;5009335;28;20053;-81
2023/09/11 06:01:00;;;;;;;18.73;12.80;;;;;;;20.13;100.00;92743.69;5014946;28;20554;-80
2023/09/11 06:03:25;;;;;;;17.95;12.00;;;;;;;20.81;100.00;92760.63;5000768;28;20133;-81
2023/09/11 06:05:51;;;;;;;17.48;11.20;;;;;;;21.48;100.00;92749.22;4991387;28;20066;-81
2023/09/11 06:08:16;;;;;;;12.18;9.88;;;;;;;22.20;100.00;92757.59;4998073;28;20034;-80
2023/09/11 06:10:43;;;;;;;13.73;10.43;;;;;;;22.77;100.00;92749.09;4983567;28;20048;-80
2023/09/11 06:13:09;;;;;;;14.63;10.15;;;;;;;23.30;100.00;92753.75;4997684;28;20088;-80
2023/09/11 06:15:36;;;;;;;14.23;10.18;;;;;;;23.83;100.00;92756.44;4998128;28;20500;-80
2023/09/11 06:18:03;;;;;;;15.32;10.25;;;;;;;24.21;100.00;92758.06;5016169;28;20476;-80
2023/09/11 06:20:29;;;;;;;15.07;10.05;;;;;;;24.65;100.00;92760.06;5006197;28;20027;-81
2023/09/11 06:22:55;;;;;;;14.27;10.00;;;;;;;24.94;100.00;92763.00;4980560;28;20038;-82
2023/09/11 06:25:21;;;;;;;13.32;9.98;;;;;;;25.33;100.00;92768.72;5010323;28;20180;-82
2023/09/11 06:27:47;;;;;;;14.30;10.10;;;;;;;25.62;100.00;92763.53;5013024;28;20520;-82
2023/09/11 06:30:13;;;;;;;12.82;9.60;;;;;;;26.04;100.00;92761.50;5006662;28;20161;-82
2023/09/11 06:32:39;;;;;;;14.25;10.38;;;;;;;26.32;100.00;92766.19;5011975;28;20037;-80
2023/09/11 06:35:05;;;;;;;19.40;10.63;;;;;;;26.67;100.00;92764.81;5021739;28;20033;-82
2023/09/11 06:37:30;;;;;;;13.05;10.30;;;;;;;27.08;100.00;92767.94;5023339;28;20590;-82
2023/09/11 06:39:56;;;;;;;14.40;10.25;;;;;;;27.38;100.00;92769.50;4988222;28;20030;-82
2023/09/11 06:42:24;;;;;;;18.67;10.63;;;;;;;27.59;100.00;92769.47;4977843;28;20049;-82
2023/09/11 06:44:51;;;;;;;12.50;10.23;;;;;;;27.82;100.00;92771.75;4992512;28;20106;-82
2023/09/11 06:47:17;;;;;;;15.13;10.75;;;;;;;28.54;100.00;92779.63;4991177;28;20028;-82
2023/09/11 06:49:43;;;;;;;14.48;10.13;;;;;;;28.83;100.00;92769.47;4972191;28;20038;-82
2023/09/11 06:52:20;;;;;;;17.05;11.32;;;;;;;29.42;100.00;92774.06;5022474;28;20034;-82
2023/09/11 06:54:46;;;;;;;14.05;9.80;;;;;;;29.90;97.38;92767.09;5004995;28;20504;-82
2023/09/11 06:57:11;;;;;;;12.23;9.98;;;;;;;29.92;96.75;92778.28;4987811;28;20030;-81
2023/09/11 06:59:37;;;;;;;12.93;10.52;;;;;;;30.42;83.31;92772.38;5000697;28;20045;-80
2023/09/11 07:02:05;;;;;;;14.48;9.65;;;;;;;30.63;76.80;92773.25;5015109;28;20052;-79
2023/09/11 07:04:31;;;;;;;17.58;9.13;;;;;;;29.43;76.77;92772.94;5004883;28;20032;-79
2023/09/11 07:06:57;;;;;;;14.65;10.20;;;;;;;28.39;82.50;92775.44;4991105;28;20416;-82
2023/09/11 07:09:23;;;;;;;15.50;10.55;;;;;;;26.79;90.98;92773.28;5008344;28;20085;-80
2023/09/11 07:11:53;;;;;;;13.77;10.70;;;;;;;26.42;91.62;92770.84;5002232;28;20034;-82
2023/09/11 07:14:22;;;;;;;12.00;10.55;;;;;;;25.88;97.89;92764.50;5020328;28;20038;-83
2023/09/11 07:16:49;;;;;;;14.75;10.23;;;;;;;25.19;100.00;92773.19;5002963;28;20080;-82
2023/09/11 07:19:15;;;;;;;17.35;10.18;;;;;;;24.41;100.00;92772.03;5019783;28;20045;-82
2023/09/11 07:21:41;;;;;;;17.27;10.45;;;;;;;23.97;100.00;92769.22;5011249;28;20037;-81
2023/09/11 07:24:08;;;;;;;14.02;10.50;;;;;;;23.91;100.00;92763.41;5007657;28;20053;-83
2023/09/11 07:26:33;;;;;;;16.10;11.05;;;;;;;23.83;100.00;92765.22;5019481;28;20033;-82
2023/09/11 07:29:04;;;;;;;17.35;10.82;;;;;;;23.47;100.00;92767.38;5018401;28;20046;-82
2023/09/11 07:31:32;;;;;;;15.63;10.82;;;;;;;23.25;100.00;92760.94;5010588;28;20049;-82
2023/09/11 07:33:58;;;;;;;16.73;10.75;;;;;;;23.27;100.00;92763.25;4999769;28;20049;-82
2023/09/11 07:36:25;;;;;;;13.70;10.73;;;;;;;23.38;100.00;92766.84;4990478;28;20022;-83
2023/09/11 07:38:52;;;;;;;18.05;10.88;;;;;;;23.12;100.00;92766.84;5001636;28;20042;-82
2023/09/11 07:41:18;;;;;;;16.42;11.02;;;;;;;22.93;100.00;92765.75;4983295;28;20045;-83
2023/09/11 07:43:50;;;;;;;17.90;11.18;;;;;;;22.92;100.00;92758.88;4982799;28;20520;-82
2023/09/11 07:46:28;;;;;;;15.82;10.57;;;;;;;23.13;100.00;92757.72;5000286;28;20038;-81
2023/09/11 07:48:54;;;;;;;17.15;10.60;;;;;;;23.05;100.00;92752.22;4999792;28;20040;-82
2023/09/11 07:51:20;;;;;;;17.10;10.45;;;;;;;23.16;100.00;92759.66;5007199;28;20137;-82
2023/09/11 07:54:13;;;;;;;17.10;12.15;;;;;;;23.32;100.00;92764.84;4993986;28;20042;-81
2023/09/11 07:56:39;;;;;;;15.60;10.70;;;;;;;23.46;100.00;92765.06;4997769;28;20079;-82
2023/09/11 07:59:04;;;;;;;16.02;10.07;;;;;;;23.41;100.00;92768.81;5019969;28;20140;-82
2023/09/11 08:01:42;;;;;;;16.90;10.68;;;;;;;23.19;100.00;92766.94;5020471;28;20076;-82
2023/09/11 08:04:59;;;;;;;27.92;10.93;;;;;;;23.25;100.00;92765.50;4996934;28;20038;-82
2023/09/11 08:07:24;;;;;;;19.88;10.60;;;;;;;23.11;100.00;92775.97;4999930;28;20030;-81
2023/09/11 08:10:30;;;;;;;18.30;10.90;;;;;;;23.32;100.00;92775.53;5000277;28;20522;-82
2023/09/11 08:12:56;;;;;;;16.65;10.70;;;;;;;23.66;100.00;92774.53;5003610;28;20041;-82
2023/09/11 08:15:21;;;;;;;15.32;10.68;;;;;;;23.55;100.00;92767.47;5019817;28;20034;-81
2023/09/11 08:17:48;;;;;;;15.45;11.13;;;;;;;23.60;100.00;92775.19;5003352;28;20038;-81
2023/09/11 08:20:17;;;;;;;17.52;11.30;;;;;;;23.55;100.00;92775.47;5019581;28;20037;-81
2023/09/11 08:22:42;;;;;;;16.77;11.68;;;;;;;23.38;100.00;92771.44;5019971;28;20060;-82
2023/09/11 08:25:41;;;;;;;16.60;12.07;;;;;;;23.60;100.00;92781.31;5019678;28;20492;-81
2023/09/11 08:28:07;;;;;;;19.45;12.00;;;;;;;23.70;100.00;92782.56;4996634;28;20420;-83
2023/09/11 08:30:34;;;;;;;20.73;11.73;;;;;;;23.68;100.00;92787.50;5005443;28;20033;-82
2023/09/11 08:33:02;;;;;;;14.32;11.23;;;;;;;23.79;100.00;92785.78;5018407;28;20041;-81
2023/09/11 08:35:29;;;;;;;16.00;11.35;;;;;;;23.73;100.00;92784.50;5007731;28;20105;-82
2023/09/11 08:37:54;;;;;;;18.55;12.27;;;;;;;23.61;100.00;92779.41;4981779;28;20062;-82
2023/09/11 08:40:20;;;;;;;15.40;12.00;;;;;;;23.78;100.00;92780.81;4993545;28;20045;-81
2023/09/11 08:42:51;;;;;;;21.02;12.27;;;;;;;23.89;100.00;92782.50;5017810;28;20046;-80
2023/09/11 08:45:17;;;;;;;19.25;11.30;;;;;;;23.70;100.00;92779.91;4992698;28;20046;-80
2023/09/11 08:47:44;;;;;;;16.42;11.60;;;;;;;23.85;100.00;92787.03;4999495;28;20029;-80
2023/09/11 08:50:25;;;;;;;19.38;11.73;;;;;;;24.10;100.00;92783.91;5001543;28;20037;-80
2023/09/11 08:52:51;;;;;;;18.45;11.90;;;;;;;23.93;100.00;92779.84;5000548;28;20039;-80
2023/09/11 08:55:36;;;;;;;18.95;13.70;;;;;;;23.63;100.00;92782.47;4985234;28;20089;-81
2023/09/11 08:58:11;;;;;;;19.83;12.05;;;;;;;23.61;100.00;92787.41;5007017;28;20526;-81
2023/09/11 09:00:37;;;;;;;19.60;12.35;;;;;;;23.75;100.00;92781.53;5019098;28;20040;-81
2023/09/11 09:03:04;;;;;;;23.83;13.68;;;;;;;23.68;100.00;92779.50;4998859;28;20456;-82
2023/09/11 09:05:33;;;;;;;17.23;12.02;;;;;;;23.94;100.00;92783.31;4998644;28;20141;-83
2023/09/11 09:08:01;;;;;;;15.25;11.45;;;;;;;24.06;100.00;92781.16;5012703;28;20121;-83
2023/09/11 09:10:27;;;;;;;17.80;12.95;;;;;;;24.27;100.00;92786.03;5015857;28;20052;-82
2023/09/11 09:12:54;;;;;;;17.77;12.05;;;;;;;24.24;100.00;92781.38;4998504;28;20065;-82
2023/09/11 09:15:21;;;;;;;16.42;12.23;;;;;;;24.37;100.00;92778.47;5017308;28;20042;-83
2023/09/11 09:17:48;;;;;;;16.05;12.60;;;;;;;24.11;100.00;92777.41;5014607;28;20472;-82
2023/09/11 09:20:14;;;;;;;14.15;10.95;;;;;;;24.20;100.00;92769.88;4999016;28;20057;-83
2023/09/11 09:22:55;;;;;;;16.00;11.63;;;;;;;24.39;100.00;92776.22;5013825;28;20033;-83
2023/09/11 09:25:21;;;;;;;21.52;12.35;;;;;;;24.38;100.00;92771.97;5009498;28;20032;-82
2023/09/11 09:27:47;;;;;;;20.08;11.90;;;;;;;24.42;100.00;92770.88;4981862;28;20027;-82
2023/09/11 09:30:27;;;;;;;16.83;12.43;;;;;;;24.10;100.00;92771.28;4983239;28;20041;-82
2023/09/11 09:32:54;;;;;;;17.48;11.77;;;;;;;24.16;100.00;92779.78;5014476;28;20033;-82
2023/09/11 09:35:22;;;;;;;17.42;11.23;;;;;;;24.33;100.00;92777.66;5016516;28;20512;-83
2023/09/11 09:37:55;;;;;;;14.57;11.32;;;;;;;24.55;100.00;92774.13;5002221;28;20038;-83
2023/09/11 09:40:32;;;;;;;15.68;11.73;;;;;;;24.63;100.00;92775.75;5012105;28;20040;-82
2023/09/11 09:42:59;;;;;;;16.88;11.50;;;;;;;24.89;100.00;92766.03;4998956;28;20085;-83
2023/09/11 09:45:39;;;;;;;14.73;11.38;;;;;;;24.61;100.00;92772.66;5000218;28;20272;-82
2023/09/11 09:48:05;;;;;;;18.08;11.88;;;;;;;24.64;100.00;92766.56;5008020;28;20093;-83
2023/09/11 09:50:53;;;;;;;17.73;12.15;;;;;;;24.91;100.00;92769.13;4999089;28;20117;-83
2023/09/11 09:53:27;;;;;;;16.75;11.00;;;;;;;25.09;100.00;92766.59;5006744;28;20061;-82
2023/09/11 09:55:55;;;;;;;12.80;10.20;;;;;;;24.82;100.00;92764.06;4985138;28;20038;-82
2023/09/11 09:58:28;;;;;;;20.10;11.10;;;;;;;24.55;100.00;92763.41;4997533;28;20081;-83
2023/09/11 10:01:02;;;;;;;15.90;10.73;;;;;;;24.48;100.00;92764.09;5001320;28;20037;-83
2023/09/11 10:03:36;;;;;;;14.35;10.27;;;;;;;24.70;100.00;92758.94;5014577;28;20113;-83
2023/09/11 10:06:07;;;;;;;13.15;10.30;;;;;;;24.87;100.00;92757.59;5014244;28;20073;-83
2023/09/11 10:08:32;;;;;;;15.30;10.38;;;;;;;24.87;100.00;92755.69;4999254;28;20220;-83
2023/09/11 10:10:58;;;;;;;16.45;10.50;;;;;;;24.79;100.00;92755.97;4997070;28;20038;-83
2023/09/11 10:13:27;;;;;;;13.60;11.00;;;;;;;24.88;100.00;92757.22;5001085;28;20041;-83
2023/09/11 10:15:56;;;;;;;20.00;10.25;;;;;;;25.09;97.55;92751.28;5014505;28;20068;-83
2023/09/11 10:18:23;;;;;;;16.83;11.90;;;;;;;25.19;98.25;92749.84;5016078;28;20400;-83
2023/09/11 10:20:49;;;;;;;14.40;10.73;;;;;;;25.34;94.13;92743.47;4998807;28;20069;-83
2023/09/11 10:23:15;;;;;;;15.63;11.68;;;;;;;25.36;95.58;92736.97;4998807;28;20033;-83
2023/09/11 10:25:45;;;;;;;16.73;11.88;;;;;;;25.17;96.27;92745.97;4989784;28;20041;-82
2023/09/11 10:28:25;;;;;;;13.85;10.23;;;;;;;24.96;100.00;92744.66;4987672;28;20026;-83
2023/09/11 10:30:58;;;;;;;17.70;11.10;;;;;;;24.79;100.00;92739.91;4996926;28;20484;-83
2023/09/11 10:33:26;;;;;;;14.43;11.65;;;;;;;24.98;98.15;92737.03;5015696;28;20057;-83
2023/09/11 10:35:57;;;;;;;15.93;11.65;;;;;;;25.13;97.18;92733.34;5013078;28;20030;-83
2023/09/11 10:38:23;;;;;;;15.98;12.43;;;;;;;25.39;95.92;92728.94;5009362;28;20361;-83
2023/09/11 10:40:51;;;;;;;15.75;11.50;;;;;;;25.35;96.51;92722.78;4967645;28;20133;-83
2023/09/11 10:43:16;;;;;;;18.70;12.75;;;;;;;25.47;95.94;92725.19;4999788;28;20121;-83
2023/09/11 10:45:42;;;;;;;16.80;12.30;;;;;;;25.29;98.08;92724.28;5001567;28;20058;-83
2023/09/11 10:48:26;;;;;;;15.15;11.27;;;;;;;25.30;100.00;92720.47;5014100;28;20040;-83
2023/09/11 10:50:52;;;;;;;16.13;13.25;;;;;;;25.03;100.00;92723.31;5011137;28;20484;-83
2023/09/11 10:53:17;;;;;;;16.30;11.52;;;;;;;25.11;100.00;92705.38;5013518;28;20038;-83
2023/09/11 10:55:43;;;;;;;16.17;11.63;;;;;;;25.12;100.00;92715.72;5005883;28;20580;-83
2023/09/11 10:58:09;;;;;;;18.50;11.77;;;;;;;25.28;100.00;92706.66;5001009;28;20574;-83
2023/09/11 11:00:38;;;;;;;16.20;11.73;;;;;;;25.41;100.00;92704.47;4996903;28;20140;-83
2023/09/11 11:03:05;;;;;;;15.93;12.10;;;;;;;25.39;96.81;92702.16;5008089;28;20065;-82
2023/09/11 11:05:34;;;;;;;19.75;12.98;;;;;;;25.35;97.01;92701.34;5014191;28;20052;-82
2023/09/11 11:08:01;;;;;;;16.13;12.65;;;;;;;24.96;100.00;92701.06;5016192;28;20038;-83
2023/09/11 11:10:27;;;;;;;15.23;11.57;;;;;;;25.27;100.00;92699.78;5016950;28;20068;-83
2023/09/11 11:13:11;;;;;;;17.58;11.18;;;;;;;25.53;100.00;92701.47;5001769;28;20033;-83